Time;durP1;ratioP1;P1;durP2;ratioP2;P2;SDS_P1;SDS_P2;PMS_P1;PMS_P2;Temp;Humidity;BMP_temperature;BMP_pressure;BME280_temperature;BME280_humidity;BME280_pressure;Samples;Min_cycle;Max_cycle;Signal;HPM_P1;HPM_P2
2021/04/28 00:00:09;;;;;;;10.60;6.50;;;8.70;67.20;;;;;;5001097;28;20796;-85
2021/04/28 00:02:36;;;;;;;8.83;6.83;;;8.60;67.60;;;;;;4996058;28;20288;-86
2021/04/28 00:05:07;;;;;;;8.00;6.90;;;8.60;68.30;;;;;;5002432;28;20439;-86
2021/04/28 00:07:34;;;;;;;6.90;6.20;;;8.50;70.00;;;;;;5001301;28;20454;-86
2021/04/28 00:10:00;;;;;;;7.90;6.30;;;8.50;71.20;;;;;;4998020;28;20529;-86
2021/04/28 00:12:27;;;;;;;6.20;5.60;;;8.40;72.60;;;;;;5000870;28;20465;-86
2021/04/28 00:14:54;;;;;;;9.47;6.30;;;8.40;73.80;;;;;;4997270;28;20490;-86
2021/04/28 00:17:19;;;;;;;9.20;7.17;;;8.40;74.80;;;;;;4985740;28;20442;-87
2021/04/28 00:19:46;;;;;;;8.57;6.33;;;8.30;76.60;;;;;;4996996;28;20836;-86
2021/04/28 00:22:11;;;;;;;6.93;5.87;;;8.30;79.40;;;;;;4998032;28;20315;-86
2021/04/28 00:24:39;;;;;;;11.30;7.10;;;8.30;79.40;;;;;;4995862;28;20533;-86
2021/04/28 00:27:05;;;;;;;7.43;6.70;;;8.30;80.80;;;;;;4999047;28;20234;-86
2021/04/28 00:29:32;;;;;;;7.13;6.43;;;8.10;81.90;;;;;;4998900;28;20521;-86
2021/04/28 00:31:58;;;;;;;7.30;6.40;;;8.10;83.40;;;;;;4996526;28;20469;-86
2021/04/28 00:34:24;;;;;;;7.80;6.50;;;8.20;84.50;;;;;;5001262;28;21304;-88
2021/04/28 00:36:50;;;;;;;8.80;7.90;;;8.20;84.60;;;;;;5001666;28;20455;-87
2021/04/28 00:39:15;;;;;;;7.73;6.60;;;8.20;86.70;;;;;;4998574;28;20449;-86
2021/04/28 00:41:45;;;;;;;8.63;6.23;;;8.20;88.50;;;;;;4991494;28;20192;-85
2021/04/28 00:44:12;;;;;;;7.17;6.47;;;8.00;87.20;;;;;;4995746;28;20539;-86
2021/04/28 00:46:40;;;;;;;7.10;6.40;;;7.90;89.00;;;;;;4996126;28;20446;-86
2021/04/28 00:49:06;;;;;;;8.30;6.73;;;7.80;90.50;;;;;;4994229;28;20446;-86
2021/04/28 00:51:31;;;;;;;11.73;7.10;;;7.70;91.00;;;;;;4981843;28;20458;-86
2021/04/28 00:53:57;;;;;;;7.67;6.90;;;7.70;91.90;;;;;;4998323;28;22087;-86
2021/04/28 00:56:23;;;;;;;12.37;6.87;;;7.60;92.70;;;;;;4996666;28;20191;-86
2021/04/28 00:58:49;;;;;;;7.40;6.60;;;7.50;92.80;;;;;;5001320;28;20980;-88
2021/04/28 01:01:14;;;;;;;8.40;7.50;;;7.50;93.30;;;;;;4996752;28;20682;-85
2021/04/28 01:03:41;;;;;;;10.13;6.83;;;7.40;93.70;;;;;;4998151;28;20185;-86
2021/04/28 01:06:07;;;;;;;7.83;6.57;;;7.30;93.80;;;;;;4998717;28;20203;-89
2021/04/28 01:08:34;;;;;;;6.90;6.20;;;7.30;93.50;;;;;;5000618;28;20462;-85
2021/04/28 01:11:00;;;;;;;7.30;6.50;;;7.20;94.20;;;;;;4996842;28;20467;-85
2021/04/28 01:13:26;;;;;;;8.33;7.07;;;7.00;94.70;;;;;;5002276;28;20417;-88
2021/04/28 01:15:53;;;;;;;7.63;6.47;;;7.00;94.80;;;;;;4998200;28;20972;-88
2021/04/28 01:18:20;;;;;;;7.30;6.17;;;7.00;94.70;;;;;;5000298;28;20452;-86
2021/04/28 01:20:46;;;;;;;8.70;6.80;;;7.00;94.60;;;;;;4998536;28;20542;-88
2021/04/28 01:23:13;;;;;;;7.33;6.53;;;7.00;94.60;;;;;;4997493;28;20444;-85
2021/04/28 01:25:40;;;;;;;6.07;5.43;;;7.10;94.90;;;;;;5000105;28;20471;-88
2021/04/28 01:28:07;;;;;;;8.80;6.57;;;7.10;94.60;;;;;;4997675;28;20444;-86
2021/04/28 01:30:55;;;;;;;9.10;7.07;;;7.10;94.50;;;;;;4997714;28;20433;-88
2021/04/28 01:33:26;;;;;;;9.90;6.47;;;6.90;94.60;;;;;;4993678;28;20557;-86
2021/04/28 01:35:56;;;;;;;6.60;6.00;;;6.80;95.20;;;;;;4997950;28;20793;-87
2021/04/28 01:38:23;;;;;;;7.67;6.93;;;6.80;95.60;;;;;;4999706;28;20444;-87
2021/04/28 01:40:51;;;;;;;9.83;6.70;;;6.70;95.90;;;;;;5000726;28;20448;-87
2021/04/28 01:43:18;;;;;;;6.73;6.03;;;6.70;95.60;;;;;;4997691;28;20499;-85
2021/04/28 01:45:52;;;;;;;9.50;6.40;;;6.70;95.60;;;;;;4998348;28;20454;-85
2021/04/28 01:48:18;;;;;;;7.07;6.37;;;6.70;95.70;;;;;;4997692;28;20475;-85
2021/04/28 01:50:47;;;;;;;8.40;6.67;;;6.70;95.50;;;;;;4996964;28;20476;-86
2021/04/28 01:53:17;;;;;;;6.23;5.60;;;6.60;95.80;;;;;;5000737;28;20458;-86
2021/04/28 01:55:44;;;;;;;6.80;6.20;;;6.50;96.00;;;;;;4998904;28;20462;-87
2021/04/28 01:58:10;;;;;;;6.90;6.07;;;6.60;96.10;;;;;;4999764;28;20478;-87
2021/04/28 02:00:37;;;;;;;6.70;6.00;;;6.60;95.80;;;;;;4996618;28;20955;-87
2021/04/28 02:03:03;;;;;;;7.10;6.30;;;6.60;95.90;;;;;;4996364;28;20443;-88
2021/04/28 02:05:29;;;;;;;7.57;6.77;;;6.60;96.10;;;;;;4997337;28;20845;-87
2021/04/28 02:07:54;;;;;;;6.67;5.97;;;6.60;96.30;;;;;;4996794;28;20440;-87
2021/04/28 02:10:21;;;;;;;6.50;5.90;;;6.60;96.70;;;;;;4997148;28;20869;-87
2021/04/28 02:12:50;;;;;;;6.87;6.17;;;6.50;96.50;;;;;;4998799;28;20604;-87
2021/04/28 02:15:20;;;;;;;8.77;6.70;;;6.60;96.50;;;;;;4996235;28;22292;-88
2021/04/28 02:17:51;;;;;;;7.50;6.20;;;6.50;96.90;;;;;;5000325;28;20492;-87
2021/04/28 02:20:17;;;;;;;5.97;5.37;;;6.50;96.90;;;;;;4997328;28;20512;-87
2021/04/28 02:22:44;;;;;;;8.93;6.33;;;6.50;97.00;;;;;;4994075;28;20870;-88
2021/04/28 02:25:10;;;;;;;8.00;6.00;;;6.40;97.40;;;;;;4997618;28;20435;-87
2021/04/28 02:27:38;;;;;;;6.07;5.50;;;6.30;97.70;;;;;;4995553;28;20439;-87
2021/04/28 02:30:09;;;;;;;8.77;7.20;;;6.40;97.40;;;;;;4995471;28;20923;-86
2021/04/28 02:32:36;;;;;;;6.63;5.87;;;6.40;97.20;;;;;;4996701;28;20515;-87
2021/04/28 02:35:03;;;;;;;7.23;6.53;;;6.50;96.90;;;;;;4995261;28;20547;-87
2021/04/28 02:37:30;;;;;;;7.47;6.30;;;6.50;96.90;;;;;;4996976;28;20537;-86
2021/04/28 02:40:08;;;;;;;7.80;6.40;;;6.50;96.70;;;;;;4998769;28;20817;-86
2021/04/28 02:42:34;;;;;;;8.10;7.23;;;6.50;96.90;;;;;;4995647;28;20447;-86
2021/04/28 02:45:04;;;;;;;9.27;7.40;;;6.50;96.60;;;;;;4997682;28;20445;-86
2021/04/28 02:47:34;;;;;;;8.60;6.60;;;6.60;97.00;;;;;;4997119;28;20428;-86
2021/04/28 02:50:10;;;;;;;8.17;7.03;;;6.60;97.10;;;;;;4995843;28;20453;-86
2021/04/28 02:52:41;;;;;;;7.97;7.27;;;6.50;97.30;;;;;;4998988;28;20530;-86
2021/04/28 02:55:21;;;;;;;7.93;6.97;;;6.50;97.80;;;;;;4994781;28;20595;-87
2021/04/28 02:57:53;;;;;;;7.80;6.83;;;6.40;98.10;;;;;;4994547;28;20502;-87
2021/04/28 03:00:23;;;;;;;7.23;6.53;;;6.40;98.00;;;;;;4995845;28;20448;-87
2021/04/28 03:02:53;;;;;;;7.07;6.27;;;6.30;98.20;;;;;;4998134;28;20447;-87
2021/04/28 03:05:23;;;;;;;7.80;7.00;;;6.30;98.40;;;;;;4993254;28;20958;-87
2021/04/28 03:07:49;;;;;;;7.60;6.73;;;6.20;98.50;;;;;;4997196;28;20799;-87
2021/04/28 03:10:17;;;;;;;7.20;6.50;;;6.20;98.30;;;;;;5000157;28;20443;-86
2021/04/28 03:12:44;;;;;;;11.70;7.10;;;6.10;98.90;;;;;;4998306;28;20488;-86
2021/04/28 03:15:26;;;;;;;7.50;6.67;;;6.00;99.00;;;;;;4999139;28;20482;-89
2021/04/28 03:17:55;;;;;;;8.03;6.97;;;5.80;99.30;;;;;;5011551;28;20443;-87
2021/04/28 03:20:33;;;;;;;8.13;6.50;;;5.60;99.80;;;;;;4997465;28;20447;-88
2021/04/28 03:22:58;;;;;;;6.87;6.17;;;5.50;99.90;;;;;;4994503;28;20444;-85
2021/04/28 03:25:24;;;;;;;8.80;7.33;;;5.50;99.90;;;;;;4996543;28;20487;-84
2021/04/28 03:27:53;;;;;;;6.40;5.80;;;5.60;99.90;;;;;;4999324;28;20187;-85
2021/04/28 03:30:19;;;;;;;7.17;6.47;;;5.40;99.90;;;;;;5001200;28;20200;-85
2021/04/28 03:32:45;;;;;;;9.30;6.80;;;5.30;99.90;;;;;;4997476;28;20486;-84
2021/04/28 03:35:11;;;;;;;10.40;6.50;;;5.40;99.90;;;;;;4996328;28;20473;-85
2021/04/28 03:37:37;;;;;;;8.63;6.53;;;5.50;99.90;;;;;;4998753;28;20754;-84
2021/04/28 03:40:05;;;;;;;7.37;6.67;;;5.50;99.90;;;;;;4994932;28;20543;-84
2021/04/28 03:42:31;;;;;;;7.93;6.33;;;5.60;99.90;;;;;;4996591;28;20445;-84
2021/04/28 03:44:57;;;;;;;8.37;7.40;;;5.60;99.90;;;;;;4997062;28;20850;-84
2021/04/28 03:47:22;;;;;;;8.17;7.30;;;5.50;99.90;;;;;;4994689;28;20177;-85
2021/04/28 03:49:48;;;;;;;7.00;6.30;;;5.50;99.90;;;;;;4996064;28;20683;-85
2021/04/28 03:52:14;;;;;;;11.10;6.73;;;5.40;99.90;;;;;;4996756;28;20185;-86
2021/04/28 03:54:40;;;;;;;8.17;7.10;;;5.50;99.90;;;;;;4994916;28;20957;-85
2021/04/28 03:57:06;;;;;;;8.03;6.50;;;5.50;99.90;;;;;;4993311;28;20710;-85
2021/04/28 03:59:33;;;;;;;8.83;6.53;;;5.60;99.90;;;;;;4996101;28;20438;-85
2021/04/28 04:02:01;;;;;;;7.47;6.77;;;5.70;99.90;;;;;;4995774;28;20502;-86
2021/04/28 04:04:26;;;;;;;9.90;6.60;;;5.60;99.90;;;;;;4995271;28;20866;-86
2021/04/28 04:06:52;;;;;;;8.67;6.33;;;5.70;99.90;;;;;;4998447;28;20450;-85
2021/04/28 04:09:21;;;;;;;9.40;7.37;;;5.80;99.90;;;;;;4993705;28;20204;-85
2021/04/28 04:11:47;;;;;;;6.50;5.90;;;5.80;99.90;;;;;;4991107;28;20224;-86
2021/04/28 04:14:13;;;;;;;7.60;6.90;;;5.70;99.90;;;;;;4996118;28;20436;-86
2021/04/28 04:16:38;;;;;;;8.93;7.30;;;5.60;99.90;;;;;;4999864;28;20453;-86
2021/04/28 04:19:06;;;;;;;10.23;7.60;;;5.50;99.90;;;;;;5003491;28;20188;-86
2021/04/28 04:21:31;;;;;;;10.77;8.13;;;5.50;99.90;;;;;;4998719;28;20277;-86
2021/04/28 04:23:57;;;;;;;11.57;7.10;;;5.50;99.90;;;;;;4998385;28;20618;-87
2021/04/28 04:26:23;;;;;;;8.10;7.27;;;5.60;99.90;;;;;;5000532;28;20195;-86
2021/04/28 04:28:49;;;;;;;10.63;7.07;;;5.60;99.90;;;;;;4998119;28;20595;-85
2021/04/28 04:31:14;;;;;;;8.90;6.70;;;5.50;99.90;;;;;;5000393;28;20192;-85
2021/04/28 04:33:40;;;;;;;13.43;6.40;;;5.50;99.90;;;;;;5000556;28;20220;-86
2021/04/28 04:36:06;;;;;;;7.50;6.67;;;5.40;99.90;;;;;;4998115;28;20184;-86
2021/04/28 04:38:31;;;;;;;9.43;7.10;;;5.50;99.90;;;;;;5000919;28;20191;-85
2021/04/28 04:40:57;;;;;;;8.00;7.20;;;5.50;99.90;;;;;;4999249;28;20536;-85
2021/04/28 04:43:23;;;;;;;7.17;6.47;;;5.50;99.90;;;;;;4996494;28;20185;-85
2021/04/28 04:45:49;;;;;;;10.23;7.73;;;5.60;99.90;;;;;;5001077;28;20201;-85
2021/04/28 04:48:15;;;;;;;8.93;7.10;;;5.60;99.90;;;;;;4998549;28;20439;-85
2021/04/28 04:50:40;;;;;;;11.00;7.90;;;5.80;99.90;;;;;;5001474;28;20451;-85
2021/04/28 04:53:06;;;;;;;8.23;6.90;;;5.90;99.90;;;;;;4997339;28;20654;-85
2021/04/28 04:55:33;;;;;;;11.10;6.90;;;5.70;99.90;;;;;;4985731;28;20198;-85
2021/04/28 04:57:59;;;;;;;8.67;6.87;;;5.40;99.90;;;;;;4999319;28;21242;-85
2021/04/28 05:00:25;;;;;;;7.93;6.83;;;5.30;99.90;;;;;;4996073;28;21027;-86
2021/04/28 05:02:51;;;;;;;7.67;6.17;;;5.30;99.90;;;;;;4996544;28;20464;-86
2021/04/28 05:05:16;;;;;;;7.90;6.53;;;5.50;99.90;;;;;;4999170;28;21020;-85
2021/04/28 05:07:43;;;;;;;13.40;7.27;;;5.60;99.90;;;;;;4999343;28;20443;-85
2021/04/28 05:10:11;;;;;;;9.60;6.90;;;5.70;99.90;;;;;;4997259;28;20254;-87
2021/04/28 05:12:46;;;;;;;7.80;7.10;;;5.70;99.60;;;;;;4996774;28;20935;-87
2021/04/28 05:15:13;;;;;;;7.90;6.80;;;5.70;99.30;;;;;;4999955;28;20435;-87
2021/04/28 05:17:42;;;;;;;10.07;5.90;;;5.70;99.50;;;;;;4996779;28;20432;-86
2021/04/28 05:20:09;;;;;;;8.10;6.70;;;5.90;99.30;;;;;;4994489;28;20471;-87
2021/04/28 05:22:35;;;;;;;9.47;6.90;;;6.00;99.00;;;;;;4999153;28;20452;-87
2021/04/28 05:25:06;;;;;;;8.80;7.70;;;6.10;98.90;;;;;;4994173;28;20563;-87
2021/04/28 05:27:41;;;;;;;8.30;6.73;;;6.30;98.50;;;;;;4995672;28;20535;-87
2021/04/28 05:30:35;;;;;;;12.03;7.47;;;6.40;98.50;;;;;;4997462;28;20822;-87
2021/04/28 05:33:03;;;;;;;10.00;6.93;;;6.40;98.40;;;;;;4995298;28;20448;-87
2021/04/28 05:35:32;;;;;;;8.40;6.80;;;6.60;98.30;;;;;;4996478;28;20455;-87
2021/04/28 05:37:58;;;;;;;9.37;7.70;;;6.50;98.10;;;;;;5000545;28;20416;-87
2021/04/28 05:40:25;;;;;;;8.60;7.50;;;6.60;98.30;;;;;;4997902;28;20505;-86
2021/04/28 05:42:51;;;;;;;8.20;7.23;;;6.60;98.00;;;;;;4999354;28;20199;-86
2021/04/28 05:45:16;;;;;;;8.60;7.20;;;6.60;98.50;;;;;;4995155;28;20481;-86
2021/04/28 05:47:42;;;;;;;7.77;6.97;;;6.60;98.90;;;;;;5002456;28;20643;-85
2021/04/28 05:50:12;;;;;;;8.93;7.50;;;6.70;99.20;;;;;;4995790;28;20583;-85
2021/04/28 05:52:41;;;;;;;7.47;6.47;;;6.70;99.40;;;;;;4993980;28;20500;-86
2021/04/28 05:55:14;;;;;;;8.87;6.90;;;6.70;99.50;;;;;;4998303;28;20823;-85
2021/04/28 05:57:39;;;;;;;11.30;7.43;;;6.80;99.70;;;;;;4985271;28;20509;-85
2021/04/28 06:00:14;;;;;;;8.33;7.43;;;7.00;99.30;;;;;;4998403;28;20930;-84
2021/04/28 06:02:42;;;;;;;8.80;7.30;;;7.20;98.70;;;;;;4996182;28;20841;-84
2021/04/28 06:05:08;;;;;;;10.67;7.73;;;7.20;98.00;;;;;;4994648;28;20484;-84
2021/04/28 06:07:35;;;;;;;10.37;7.10;;;7.30;98.10;;;;;;4995153;28;20979;-84
2021/04/28 06:10:01;;;;;;;9.37;7.70;;;7.40;98.50;;;;;;4997075;28;20529;-84
2021/04/28 06:12:28;;;;;;;9.70;7.67;;;7.50;98.20;;;;;;4996263;28;20950;-86
2021/04/28 06:14:57;;;;;;;10.50;7.60;;;7.70;98.10;;;;;;4999240;28;20193;-86
2021/04/28 06:17:23;;;;;;;10.47;9.47;;;7.90;97.70;;;;;;4997931;28;20869;-86
2021/04/28 06:19:48;;;;;;;9.17;8.27;;;8.10;97.50;;;;;;4995001;28;20550;-86
2021/04/28 06:22:14;;;;;;;8.33;7.40;;;8.30;97.00;;;;;;4998215;28;20455;-86
2021/04/28 06:24:40;;;;;;;8.90;7.63;;;8.40;96.60;;;;;;4993728;28;20217;-85
2021/04/28 06:27:06;;;;;;;12.63;8.07;;;8.50;95.70;;;;;;4995823;28;20624;-85
2021/04/28 06:29:32;;;;;;;9.03;8.13;;;8.50;95.60;;;;;;4993853;28;20221;-86
2021/04/28 06:31:58;;;;;;;9.30;8.30;;;8.70;95.80;;;;;;4995772;28;20492;-86
2021/04/28 06:34:26;;;;;;;11.67;8.40;;;8.70;95.70;;;;;;4994216;28;20226;-84
2021/04/28 06:36:52;;;;;;;10.00;8.90;;;8.90;96.50;;;;;;4997107;28;20458;-84
2021/04/28 06:39:17;;;;;;;9.87;8.87;;;9.00;95.30;;;;;;4992969;28;20966;-84
2021/04/28 06:41:43;;;;;;;11.50;8.30;;;9.10;95.20;;;;;;4995644;28;20192;-85
2021/04/28 06:44:09;;;;;;;8.80;7.90;;;9.40;95.40;;;;;;4994459;28;20222;-86
2021/04/28 06:46:35;;;;;;;11.10;9.37;;;9.70;95.30;;;;;;4990717;28;20454;-85
2021/04/28 06:49:01;;;;;;;9.60;8.70;;;9.80;95.00;;;;;;4995280;28;20442;-85
2021/04/28 06:51:27;;;;;;;9.53;8.63;;;9.90;95.00;;;;;;4993367;28;20190;-84
2021/04/28 06:53:54;;;;;;;9.60;8.60;;;10.10;94.00;;;;;;4992620;28;20643;-85
2021/04/28 06:56:21;;;;;;;10.87;9.03;;;10.30;93.50;;;;;;4982306;28;20217;-83
2021/04/28 06:58:49;;;;;;;15.40;9.00;;;10.50;92.90;;;;;;4996448;28;20463;-85
2021/04/28 07:01:14;;;;;;;12.50;9.63;;;10.60;92.30;;;;;;4992943;28;20476;-85
2021/04/28 07:03:40;;;;;;;10.40;9.40;;;10.70;92.30;;;;;;4999184;28;21019;-83
2021/04/28 07:06:07;;;;;;;10.90;9.07;;;10.90;92.40;;;;;;4991692;28;20214;-85
2021/04/28 07:08:33;;;;;;;11.13;9.77;;;11.00;91.70;;;;;;4992448;28;20628;-85
2021/04/28 07:10:59;;;;;;;15.30;9.53;;;11.00;92.00;;;;;;4994541;28;20465;-84
2021/04/28 07:13:25;;;;;;;11.77;9.27;;;11.10;92.20;;;;;;4993966;28;20499;-85
2021/04/28 07:15:51;;;;;;;10.93;9.40;;;11.10;92.00;;;;;;4992516;28;20198;-85
2021/04/28 07:18:45;;;;;;;11.10;9.37;;;11.30;92.30;;;;;;4992918;28;20203;-86
2021/04/28 07:31:18;;;;;;;13.50;10.10;;;12.00;92.30;;;;;;4980629;28;20478;-86
2021/04/28 07:33:47;;;;;;;12.47;10.63;;;12.10;90.30;;;;;;4995689;28;20462;-85
2021/04/28 07:36:13;;;;;;;11.57;10.37;;;12.10;90.80;;;;;;4996419;28;20470;-86
2021/04/28 07:38:39;;;;;;;11.83;10.63;;;12.40;90.30;;;;;;4995182;28;20457;-86
2021/04/28 07:41:05;;;;;;;12.27;10.50;;;12.70;90.10;;;;;;4992251;28;20443;-85
2021/04/28 07:43:31;;;;;;;13.13;10.60;;;13.00;88.10;;;;;;4981800;28;20220;-86
2021/04/28 07:46:17;;;;;;;13.30;10.47;;;13.10;86.10;;;;;;4993397;28;20420;-87
2021/04/28 07:48:43;;;;;;;14.30;12.03;;;13.20;86.80;;;;;;4999218;28;20868;-88
2021/04/28 07:51:08;;;;;;;12.80;11.33;;;13.30;86.20;;;;;;4999728;28;20701;-89
2021/04/28 07:53:34;;;;;;;17.70;10.90;;;13.30;86.10;;;;;;4997366;28;20192;-87
2021/04/28 07:56:00;;;;;;;12.57;11.23;;;13.40;86.20;;;;;;5002313;28;20627;-88
2021/04/28 07:58:25;;;;;;;12.07;10.80;;;13.50;84.90;;;;;;5003410;28;20220;-88
2021/04/28 08:00:51;;;;;;;13.30;10.80;;;13.70;85.30;;;;;;4998338;28;20200;-87
2021/04/28 08:03:17;;;;;;;13.20;10.73;;;14.00;85.60;;;;;;4997393;28;22824;-88
2021/04/28 08:05:42;;;;;;;13.20;11.37;;;14.30;83.70;;;;;;4996864;28;20242;-90
2021/04/28 08:08:08;;;;;;;12.97;11.57;;;14.40;81.60;;;;;;4997140;28;20196;-87
2021/04/28 08:10:34;;;;;;;13.07;10.13;;;14.70;81.00;;;;;;4997039;28;20197;-85
2021/04/28 08:13:01;;;;;;;15.47;11.80;;;14.60;80.70;;;;;;4999630;28;20461;-85
2021/04/28 08:15:27;;;;;;;14.33;11.50;;;14.80;82.40;;;;;;4998653;28;20197;-86
2021/04/28 08:17:53;;;;;;;13.43;11.40;;;15.10;80.00;;;;;;4998303;28;20978;-89
2021/04/28 08:20:20;;;;;;;15.70;12.03;;;15.50;80.30;;;;;;5001611;28;20198;-90
2021/04/28 08:22:46;;;;;;;14.00;12.60;;;15.40;77.10;;;;;;5001175;28;20828;-90
2021/04/28 08:25:21;;;;;;;13.33;11.83;;;15.30;84.90;;;;;;4983113;28;20482;-92
2021/04/28 08:27:47;;;;;;;14.60;11.87;;;15.40;85.80;;;;;;4999925;28;20518;-93
2021/04/28 08:30:13;;;;;;;13.33;11.97;;;15.50;81.50;;;;;;5001771;28;20448;-89
2021/04/28 08:32:39;;;;;;;14.13;11.77;;;15.70;77.20;;;;;;5002869;28;20487;-88
2021/04/28 08:35:06;;;;;;;14.00;12.67;;;15.80;76.10;;;;;;5001026;28;20483;-91
2021/04/28 08:37:35;;;;;;;13.37;11.80;;;15.90;76.70;;;;;;4997148;28;20439;-87
2021/04/28 08:40:00;;;;;;;15.10;12.53;;;15.80;75.00;;;;;;5001644;28;20762;-86
2021/04/28 08:42:26;;;;;;;12.97;11.67;;;15.80;75.10;;;;;;4996854;28;20460;-86
2021/04/28 08:44:53;;;;;;;13.23;11.57;;;16.00;79.50;;;;;;4970293;28;20281;-86
2021/04/28 08:47:21;;;;;;;13.60;12.13;;;16.00;75.80;;;;;;4958983;28;20541;-86
2021/04/28 08:49:48;;;;;;;13.53;11.17;;;16.20;76.30;;;;;;4964473;28;20453;-87
2021/04/28 08:52:14;;;;;;;14.40;12.90;;;16.50;77.50;;;;;;4962219;28;20514;-87
2021/04/28 08:54:41;;;;;;;16.00;12.97;;;16.70;85.20;;;;;;4960148;28;20452;-87
2021/04/28 08:57:12;;;;;;;14.83;13.37;;;16.80;82.70;;;;;;4959598;28;20787;-86
2021/04/28 08:59:39;;;;;;;17.17;13.53;;;17.00;75.00;;;;;;4957625;28;21024;-86
2021/04/28 09:02:31;;;;;;;13.43;12.13;;;17.00;80.10;;;;;;4957295;28;20797;-87
2021/04/28 09:05:10;;;;;;;13.63;12.23;;;17.10;72.80;;;;;;4958423;28;20481;-87
2021/04/28 09:07:38;;;;;;;16.90;13.13;;;17.40;71.50;;;;;;4960360;28;20437;-87
2021/04/28 09:10:17;;;;;;;15.93;13.10;;;17.40;70.70;;;;;;4962504;28;21010;-87
2021/04/28 09:13:01;;;;;;;17.80;13.10;;;17.30;70.00;;;;;;4976839;28;20461;-87
2021/04/28 09:15:33;;;;;;;16.80;13.60;;;17.30;70.40;;;;;;4959799;28;20442;-86
2021/04/28 09:18:00;;;;;;;15.60;13.30;;;16.80;74.50;;;;;;4958570;28;20439;-87
2021/04/28 09:20:45;;;;;;;15.73;12.80;;;17.10;72.10;;;;;;4963180;28;20438;-86
2021/04/28 09:23:17;;;;;;;15.80;12.83;;;17.20;71.20;;;;;;4960282;28;20460;-86
2021/04/28 09:25:49;;;;;;;15.77;13.20;;;17.70;69.50;;;;;;4948871;28;20505;-86
2021/04/28 09:28:27;;;;;;;17.93;13.73;;;17.90;67.60;;;;;;4967351;28;20458;-87
2021/04/28 09:31:10;;;;;;;17.10;13.40;;;18.10;78.40;;;;;;4953279;28;20453;-86
2021/04/28 09:33:44;;;;;;;15.13;13.30;;;18.50;66.60;;;;;;4956352;28;20496;-87
2021/04/28 09:36:12;;;;;;;14.47;11.80;;;18.60;66.60;;;;;;4966723;28;20489;-86
2021/04/28 09:39:01;;;;;;;17.17;13.10;;;18.90;62.30;;;;;;4954720;28;20438;-92
2021/04/28 09:41:34;;;;;;;14.73;11.97;;;18.90;59.50;;;;;;4955081;28;20587;-91
2021/04/28 09:44:02;;;;;;;15.93;9.70;;;18.90;57.90;;;;;;4954828;28;20477;-89
2021/04/28 09:46:37;;;;;;;13.07;11.60;;;19.00;56.40;;;;;;4967016;28;20537;-90
2021/04/28 09:49:14;;;;;;;10.10;8.60;;;19.20;53.60;;;;;;4950645;28;20441;-89
2021/04/28 09:51:40;;;;;;;10.53;9.53;;;19.40;51.30;;;;;;4957287;28;20472;-89
2021/04/28 09:54:14;;;;;;;10.23;7.77;;;19.60;51.40;;;;;;4958102;28;20465;-89
2021/04/28 09:56:41;;;;;;;9.30;6.20;;;19.80;48.10;;;;;;4958915;28;20691;-90
2021/04/28 09:59:10;;;;;;;9.70;8.70;;;20.10;45.20;;;;;;4956151;28;20445;-92
2021/04/28 10:01:38;;;;;;;11.70;9.03;;;20.50;52.80;;;;;;4957472;28;20453;-88
2021/04/28 10:04:07;;;;;;;10.10;7.60;;;20.70;53.10;;;;;;4951136;28;20856;-92
2021/04/28 10:06:49;;;;;;;7.40;6.70;;;20.60;47.80;;;;;;4953662;28;20481;-89
2021/04/28 10:09:37;;;;;;;9.20;8.30;;;20.60;44.70;;;;;;4966579;28;20449;-87
2021/04/28 10:12:08;;;;;;;8.57;7.67;;;20.60;45.60;;;;;;4955315;28;20539;-88
2021/04/28 10:14:36;;;;;;;9.70;8.60;;;20.90;46.00;;;;;;4957716;28;20496;-87
2021/04/28 10:17:03;;;;;;;11.13;9.03;;;20.80;42.70;;;;;;4974583;28;20482;-87
2021/04/28 10:19:30;;;;;;;9.53;8.00;;;20.20;41.10;;;;;;4968087;28;20949;-87
2021/04/28 10:22:08;;;;;;;10.70;9.00;;;19.90;44.10;;;;;;4961080;28;20540;-87
2021/04/28 10:24:41;;;;;;;7.53;6.83;;;20.20;42.50;;;;;;4968930;28;20837;-89
2021/04/28 10:27:13;;;;;;;9.40;6.67;;;20.50;37.80;;;;;;4969957;28;20441;-88
2021/04/28 10:29:39;;;;;;;6.70;6.00;;;20.80;43.00;;;;;;4956032;28;20454;-93
2021/04/28 10:32:09;;;;;;;6.73;5.10;;;20.50;37.50;;;;;;4959909;28;20453;-92
2021/04/28 10:34:37;;;;;;;11.17;6.20;;;20.10;33.60;;;;;;4954582;28;20823;-93
2021/04/28 10:37:06;;;;;;;5.67;5.03;;;19.90;34.60;;;;;;4958463;28;20477;-92
2021/04/28 10:39:44;;;;;;;5.60;4.90;;;20.00;35.30;;;;;;4955098;28;20458;-91
2021/04/28 10:42:39;;;;;;;5.27;4.77;;;20.50;33.70;;;;;;4976608;28;20452;-92
2021/04/28 10:45:27;;;;;;;5.80;4.20;;;20.90;31.30;;;;;;4987574;28;20895;-92
2021/04/28 10:47:55;;;;;;;5.40;4.37;;;20.80;32.90;;;;;;4960017;28;20433;-94
2021/04/28 10:51:06;;;;;;;5.10;4.10;;;20.80;29.90;;;;;;4961203;28;20540;-92
2021/04/28 10:53:32;;;;;;;7.30;3.73;;;21.20;29.00;;;;;;4960909;28;20822;-92
2021/04/28 10:56:07;;;;;;;4.53;4.00;;;22.20;30.10;;;;;;4954053;28;20478;-88
2021/04/28 10:58:34;;;;;;;5.90;4.30;;;22.50;27.70;;;;;;4952794;28;20194;-89
2021/04/28 11:01:00;;;;;;;4.27;3.83;;;22.40;27.80;;;;;;4956304;28;20453;-87
2021/04/28 11:04:08;;;;;;;6.00;5.20;;;22.50;27.70;;;;;;4953908;28;20464;-90
2021/04/28 11:06:52;;;;;;;6.67;5.60;;;22.00;27.10;;;;;;4956287;28;20604;-86
2021/04/28 11:09:28;;;;;;;4.70;4.30;;;22.00;28.30;;;;;;4959184;28;20450;-91
2021/04/28 11:11:56;;;;;;;5.40;4.63;;;22.10;28.40;;;;;;4958168;28;20529;-90
2021/04/28 11:14:31;;;;;;;6.83;4.63;;;22.20;27.90;;;;;;4957597;28;20528;-94
2021/04/28 11:17:16;;;;;;;6.70;5.10;;;22.10;28.10;;;;;;4960761;28;20445;-89
2021/04/28 11:19:45;;;;;;;5.83;5.27;;;22.10;29.00;;;;;;4967294;28;20848;-91
2021/04/28 11:22:22;;;;;;;5.50;5.00;;;21.60;29.00;;;;;;4959290;28;20480;-88
2021/04/28 11:24:59;;;;;;;7.30;5.20;;;21.80;28.60;;;;;;4957302;28;20455;-89
2021/04/28 11:27:44;;;;;;;5.57;5.00;;;21.80;28.60;;;;;;4964032;28;20425;-84
2021/04/28 11:30:36;;;;;;;6.53;5.47;;;22.00;28.90;;;;;;4959079;28;20448;-87
2021/04/28 11:33:19;;;;;;;6.77;5.30;;;22.00;28.80;;;;;;4956427;28;20476;-91
2021/04/28 11:36:07;;;;;;;6.13;5.20;;;22.10;29.10;;;;;;4960390;28;20487;-88
2021/04/28 11:38:35;;;;;;;6.40;5.13;;;22.20;29.50;;;;;;4958788;28;21061;-88
2021/04/28 11:41:09;;;;;;;7.73;5.33;;;22.30;29.20;;;;;;4958520;28;20445;-88
2021/04/28 11:43:57;;;;;;;5.80;5.30;;;22.20;28.60;;;;;;4960976;28;20444;-90
2021/04/28 11:46:28;;;;;;;6.10;5.20;;;22.10;28.90;;;;;;4960513;28;20500;-91
2021/04/28 11:48:57;;;;;;;12.47;5.93;;;22.00;30.40;;;;;;4959935;28;20449;-89
2021/04/28 11:51:28;;;;;;;8.93;7.17;;;22.00;30.90;;;;;;4963323;28;20450;-89
2021/04/28 11:54:10;;;;;;;10.60;8.23;;;22.40;31.80;;;;;;4959331;28;20593;-92
2021/04/28 11:56:43;;;;;;;10.33;8.73;;;22.30;34.30;;;;;;4959061;28;20444;-92
2021/04/28 11:59:25;;;;;;;9.47;8.47;;;21.70;37.90;;;;;;4965090;28;20453;-91
2021/04/28 12:02:00;;;;;;;10.90;9.17;;;21.90;41.90;;;;;;4977131;28;20470;-87
2021/04/28 12:04:45;;;;;;;9.73;8.70;;;21.60;38.40;;;;;;4981458;28;20433;-86
2021/04/28 12:07:14;;;;;;;11.80;9.87;;;21.50;39.30;;;;;;4957357;28;20963;-85
2021/04/28 12:09:43;;;;;;;11.50;9.10;;;21.70;38.80;;;;;;4962017;28;20459;-84
2021/04/28 12:12:26;;;;;;;13.47;9.40;;;22.20;40.60;;;;;;4957786;28;20457;-85
2021/04/28 12:15:07;;;;;;;10.47;8.83;;;22.30;39.20;;;;;;4960635;28;20477;-87
2021/04/28 12:17:37;;;;;;;11.23;8.23;;;22.40;43.10;;;;;;4962666;28;20438;-88
2021/04/28 12:20:08;;;;;;;13.47;9.07;;;22.70;38.70;;;;;;4963084;28;20466;-85
2021/04/28 12:22:35;;;;;;;13.43;8.37;;;22.80;41.00;;;;;;4956849;28;20443;-86
2021/04/28 12:25:02;;;;;;;9.73;8.27;;;23.00;36.40;;;;;;4959433;28;20549;-87
2021/04/28 12:27:33;;;;;;;11.67;8.90;;;22.40;37.20;;;;;;4960672;28;21207;-87
2021/04/28 12:30:11;;;;;;;10.07;8.77;;;22.80;38.30;;;;;;4965647;28;20441;-86
2021/04/28 12:32:38;;;;;;;11.03;8.13;;;22.10;36.20;;;;;;4974708;28;20461;-87
2021/04/28 12:35:14;;;;;;;10.47;7.00;;;22.20;38.10;;;;;;4959884;28;20484;-88
2021/04/28 12:37:41;;;;;;;9.70;7.73;;;22.60;37.70;;;;;;4958804;28;20499;-87
2021/04/28 12:40:12;;;;;;;12.00;8.60;;;22.50;37.40;;;;;;4961197;28;20434;-86
2021/04/28 12:42:40;;;;;;;9.70;7.47;;;22.40;35.80;;;;;;4962264;28;20445;-86
2021/04/28 12:45:18;;;;;;;8.70;7.80;;;22.80;36.00;;;;;;4969968;28;20445;-85
2021/04/28 12:47:43;;;;;;;9.63;8.00;;;22.40;35.80;;;;;;4972756;28;20811;-85
2021/04/28 12:50:13;;;;;;;8.50;7.60;;;22.60;38.50;;;;;;4960013;28;20438;-89
2021/04/28 12:52:41;;;;;;;13.00;7.60;;;23.30;37.50;;;;;;4960717;28;20217;-87
2021/04/28 12:55:32;;;;;;;9.57;7.40;;;23.00;36.20;;;;;;4955810;28;20980;-86
2021/04/28 12:58:12;;;;;;;10.27;7.50;;;23.00;33.90;;;;;;4960464;28;20504;-87
2021/04/28 13:00:45;;;;;;;8.63;6.90;;;23.00;35.40;;;;;;4974185;28;20444;-88
2021/04/28 13:03:14;;;;;;;8.50;7.60;;;23.10;34.50;;;;;;4958284;28;20453;-85
2021/04/28 13:05:42;;;;;;;9.20;7.80;;;23.20;35.40;;;;;;4959592;28;20552;-85
2021/04/28 13:08:28;;;;;;;11.90;8.00;;;22.80;35.60;;;;;;4952940;28;20529;-85